Time;durP1;ratioP1;P1;durP2;ratioP2;P2;SDS_P1;SDS_P2;PMS_P1;PMS_P2;Temp;Humidity;BMP_temperature;BMP_pressure;BME280_temperature;BME280_humidity;BME280_pressure;Samples;Min_cycle;Max_cycle;Signal;HPM_P1;HPM_P2
2021/05/03 00:02:20;;;;;;;4.72;3.17;;;;;;;3.90;61.29;100807.50;10309127;28;20238;-71
2021/05/03 00:07:22;;;;;;;6.57;3.43;;;;;;;3.80;61.58;100806.22;10269441;28;20258;-71
2021/05/03 00:12:24;;;;;;;6.07;3.53;;;;;;;3.71;61.99;100812.81;10291178;28;20584;-71
2021/05/03 00:17:27;;;;;;;7.83;3.90;;;;;;;3.57;62.72;100809.94;10267671;28;20236;-71
2021/05/03 00:22:29;;;;;;;5.97;3.87;;;;;;;3.54;62.56;100810.94;10270429;28;20238;-71
2021/05/03 00:27:31;;;;;;;7.97;3.87;;;;;;;3.44;63.16;100814.91;10267765;28;21980;-71
2021/05/03 00:32:34;;;;;;;5.40;3.13;;;;;;;3.31;63.46;100816.38;10267446;28;20232;-71
2021/05/03 00:37:36;;;;;;;7.47;3.57;;;;;;;3.25;63.85;100813.06;10268785;28;20246;-71
2021/05/03 00:42:42;;;;;;;8.87;3.57;;;;;;;3.17;64.22;100816.97;10266177;28;20941;-71
2021/05/03 00:47:45;;;;;;;7.40;4.20;;;;;;;3.15;64.29;100818.84;10268736;28;20236;-71
2021/05/03 00:52:47;;;;;;;7.17;4.27;;;;;;;3.12;64.14;100821.63;10265923;28;20675;-71
2021/05/03 00:57:49;;;;;;;7.20;4.40;;;;;;;3.10;64.37;100824.38;10265734;28;20314;-71
2021/05/03 01:02:52;;;;;;;9.70;4.53;;;;;;;3.09;64.56;100827.06;10268548;28;20614;-71
2021/05/03 01:07:55;;;;;;;5.97;3.70;;;;;;;3.01;64.54;100822.94;10272911;28;20243;-71
2021/05/03 01:12:58;;;;;;;8.97;4.47;;;;;;;2.87;65.20;100822.66;10276590;28;20262;-71
2021/05/03 01:18:03;;;;;;;6.70;3.97;;;;;;;2.62;65.70;100817.53;10311684;28;20235;-71
2021/05/03 01:23:07;;;;;;;7.57;4.23;;;;;;;2.70;65.72;100823.38;10313683;28;20647;-71
2021/05/03 01:28:09;;;;;;;10.30;4.23;;;;;;;2.57;66.70;100827.44;10312290;28;20882;-71
2021/05/03 01:33:13;;;;;;;6.50;4.37;;;;;;;2.42;66.78;100830.72;10314822;28;20599;-71
2021/05/03 01:38:16;;;;;;;9.50;4.37;;;;;;;2.40;66.82;100826.31;10313204;28;20235;-71
2021/05/03 01:43:20;;;;;;;8.13;4.20;;;;;;;2.52;66.80;100832.03;10315166;28;20235;-71
2021/05/03 01:48:24;;;;;;;10.73;5.13;;;;;;;2.48;66.65;100835.75;10315057;28;20235;-71
2021/05/03 01:53:27;;;;;;;8.60;4.33;;;;;;;2.24;67.43;100841.09;10311702;28;20242;-71
2021/05/03 01:58:29;;;;;;;7.57;5.73;;;;;;;2.33;67.39;100842.50;10314483;28;20238;-71
2021/05/03 02:03:31;;;;;;;8.10;4.90;;;;;;;2.23;68.02;100844.69;10313057;28;20246;-71
2021/05/03 02:08:33;;;;;;;9.00;5.43;;;;;;;2.32;67.40;100843.44;10312236;28;20258;-71
2021/05/03 02:13:35;;;;;;;10.93;5.53;;;;;;;2.31;67.71;100847.03;10310084;28;20239;-71
2021/05/03 02:18:37;;;;;;;10.00;5.40;;;;;;;2.19;67.81;100845.72;10270922;28;20243;-70
2021/05/03 02:23:40;;;;;;;10.87;4.63;;;;;;;2.30;67.66;100846.16;10272244;28;21804;-70
2021/05/03 02:28:42;;;;;;;5.17;4.23;;;;;;;2.39;67.50;100853.75;10269467;28;20250;-70
2021/05/03 02:33:44;;;;;;;9.33;5.30;;;;;;;2.43;67.83;100854.50;10273420;28;20236;-70
2021/05/03 02:38:47;;;;;;;6.70;4.43;;;;;;;2.50;67.64;100857.78;10270285;28;20317;-70
2021/05/03 02:43:49;;;;;;;7.63;5.17;;;;;;;2.46;67.78;100857.03;10271243;28;20232;-70
2021/05/03 02:48:51;;;;;;;9.70;5.10;;;;;;;2.60;67.18;100840.59;10271865;28;20263;-70
2021/05/03 02:53:54;;;;;;;10.87;4.93;;;;;;;2.56;67.23;100842.50;10271475;28;20243;-70
2021/05/03 02:58:56;;;;;;;7.47;5.23;;;;;;;2.54;67.54;100844.34;10269450;28;20240;-71
2021/05/03 03:03:58;;;;;;;7.27;4.97;;;;;;;2.45;67.73;100852.66;10269696;28;20239;-70
2021/05/03 03:09:01;;;;;;;8.73;5.10;;;;;;;2.49;67.67;100850.72;10270364;28;20242;-70
2021/05/03 03:14:03;;;;;;;9.20;5.23;;;;;;;2.41;68.16;100851.03;10275693;28;20703;-69
2021/05/03 03:19:06;;;;;;;9.77;5.03;;;;;;;2.35;68.03;100859.22;10309869;28;20266;-69
2021/05/03 03:24:10;;;;;;;11.00;5.53;;;;;;;2.36;68.30;100847.72;10310361;28;20699;-70
2021/05/03 03:29:12;;;;;;;9.47;4.73;;;;;;;2.40;68.13;100855.47;10310550;28;20818;-70
2021/05/03 03:34:14;;;;;;;11.53;5.43;;;;;;;2.38;68.22;100848.50;10310710;28;20253;-70
2021/05/03 03:39:16;;;;;;;6.40;4.60;;;;;;;2.53;68.04;100839.97;10308287;28;20319;-70
2021/05/03 03:44:18;;;;;;;7.20;4.60;;;;;;;2.53;67.78;100850.59;10308967;28;20613;-70
2021/05/03 03:49:21;;;;;;;9.83;4.50;;;;;;;2.58;67.82;100853.94;10309069;28;20241;-70
2021/05/03 03:54:23;;;;;;;9.23;5.57;;;;;;;2.67;67.66;100849.19;10309774;28;20268;-70
2021/05/03 03:59:25;;;;;;;8.13;5.23;;;;;;;2.83;67.09;100853.78;10309519;28;20759;-70
2021/05/03 04:04:30;;;;;;;10.30;5.20;;;;;;;2.82;66.95;100854.69;10309944;28;20609;-70
2021/05/03 04:09:38;;;;;;;9.83;6.20;;;;;;;2.79;66.93;100848.66;10307828;28;20238;-69
2021/05/03 04:25:23;;;;;;;12.83;6.03;;;;;;;3.06;66.48;100850.16;10269460;28;20242;-70
2021/05/03 04:30:25;;;;;;;10.47;5.67;;;;;;;3.17;66.42;100851.50;10267067;28;20246;-70
2021/05/03 04:35:28;;;;;;;9.93;5.70;;;;;;;3.09;66.69;100862.44;10267645;28;20228;-70
2021/05/03 04:40:31;;;;;;;10.20;6.30;;;;;;;3.28;66.38;100843.94;10270568;28;20238;-70
2021/05/03 04:45:33;;;;;;;10.90;6.20;;;;;;;3.24;66.47;100848.53;10275001;28;20262;-70
2021/05/03 04:50:35;;;;;;;10.97;6.33;;;;;;;3.28;66.40;100857.22;10272768;28;21466;-70
2021/05/03 04:55:37;;;;;;;10.53;6.03;;;;;;;3.37;66.16;100858.59;10274781;28;20250;-71
2021/05/03 05:00:42;;;;;;;9.37;6.10;;;;;;;3.50;66.20;100865.09;10273486;28;20244;-71
2021/05/03 05:05:47;;;;;;;9.07;5.53;;;;;;;3.42;66.49;100862.78;10274338;28;20231;-70
2021/05/03 05:10:50;;;;;;;9.33;5.80;;;;;;;3.40;66.80;100869.09;10275551;28;20270;-70
2021/05/03 05:15:52;;;;;;;10.37;5.93;;;;;;;3.54;66.62;100866.72;10297139;28;20890;-70
2021/05/03 05:20:59;;;;;;;12.37;6.60;;;;;;;3.76;66.07;100873.69;10313494;28;20326;-70
2021/05/03 05:26:02;;;;;;;13.43;6.77;;;;;;;4.05;65.76;100875.91;10314753;28;21387;-70
2021/05/03 05:31:04;;;;;;;9.40;5.90;;;;;;;4.16;65.25;100880.72;10314811;28;20245;-70
2021/05/03 05:36:07;;;;;;;9.17;5.67;;;;;;;4.13;65.35;100872.91;10314739;28;20227;-70
2021/05/03 05:41:10;;;;;;;10.90;5.90;;;;;;;4.27;65.31;100883.75;10312743;28;20242;-70
2021/05/03 05:46:13;;;;;;;11.47;5.60;;;;;;;4.30;65.10;100877.41;10313793;28;20616;-70
2021/05/03 05:51:15;;;;;;;8.23;5.43;;;;;;;4.35;65.04;100884.25;10274993;28;20236;-70
2021/05/03 05:56:18;;;;;;;8.70;5.85;;;;;;;4.49;64.44;100880.94;10235157;28;20243;-70
2021/05/03 06:01:21;;;;;;;8.88;5.63;;;;;;;4.64;64.42;100881.16;10239060;28;20918;-70
2021/05/03 06:06:23;;;;;;;10.13;5.10;;;;;;;4.69;63.88;100877.34;10274778;28;20231;-69
2021/05/03 06:11:26;;;;;;;10.70;5.25;;;;;;;4.88;63.16;100874.59;10313143;28;20234;-70
2021/05/03 06:16:28;;;;;;;17.52;6.28;;;;;;;5.04;63.23;100872.06;10277171;28;20246;-70
2021/05/03 06:21:30;;;;;;;8.90;6.13;;;;;;;5.04;62.90;100864.09;10233233;28;21854;-70
2021/05/03 06:26:33;;;;;;;18.05;8.73;;;;;;;5.20;62.55;100866.84;10232680;28;20241;-70
2021/05/03 06:31:35;;;;;;;15.32;7.00;;;;;;;4.62;63.03;100858.13;10230640;28;20718;-69
2021/05/03 06:36:37;;;;;;;16.00;6.53;;;;;;;4.96;62.92;100852.94;10251149;28;20250;-70
2021/05/03 06:41:41;;;;;;;14.55;7.18;;;;;;;5.44;61.95;100854.94;10285125;28;20239;-70
2021/05/03 06:46:44;;;;;;;5.10;3.42;;;;;;;5.58;60.97;100854.19;10269890;28;21550;-69
2021/05/03 06:51:46;;;;;;;12.45;4.45;;;;;;;5.50;60.62;100864.41;10270838;28;20228;-69
2021/05/03 06:56:49;;;;;;;8.80;6.22;;;;;;;5.87;60.01;100867.78;10269433;28;20266;-69
2021/05/03 07:01:52;;;;;;;9.63;5.85;;;;;;;5.81;60.47;100854.78;10270298;28;20600;-69
2021/05/03 07:06:54;;;;;;;7.15;4.05;;;;;;;6.05;59.32;100863.25;10271319;28;20244;-69
2021/05/03 07:11:57;;;;;;;9.68;6.13;;;;;;;6.36;58.92;100865.09;10270728;28;20243;-70
2021/05/03 07:16:59;;;;;;;9.27;5.90;;;;;;;6.54;57.95;100849.88;10301071;28;20242;-69
2021/05/03 07:22:02;;;;;;;9.30;5.78;;;;;;;7.19;56.96;100858.56;10309460;28;20241;-69
2021/05/03 07:27:06;;;;;;;10.30;5.78;;;;;;;7.14;56.91;100868.66;10310048;28;20611;-69
2021/05/03 07:32:08;;;;;;;11.45;7.97;;;;;;;7.59;56.32;100849.94;10310844;28;20246;-69
2021/05/03 07:37:12;;;;;;;11.20;7.28;;;;;;;7.19;56.76;100849.69;10309445;28;20722;-70
2021/05/03 07:42:15;;;;;;;12.07;8.32;;;;;;;7.59;55.93;100842.78;10309881;28;20623;-69
2021/05/03 07:47:37;;;;;;;12.30;6.53;;;;;;;8.01;54.41;100842.88;10262422;28;20231;-69
2021/05/03 07:52:39;;;;;;;7.03;3.53;;;;;;;7.19;55.04;100847.88;10230401;28;20246;-69
2021/05/03 07:57:42;;;;;;;9.95;6.88;;;;;;;7.88;53.84;100832.09;10258256;28;20840;-69
2021/05/03 08:02:44;;;;;;;13.40;7.13;;;;;;;7.72;54.07;100832.19;10281155;28;20247;-69
2021/05/03 08:07:47;;;;;;;10.77;6.18;;;;;;;8.23;51.82;100834.34;10265921;28;20236;-69
2021/05/03 08:12:51;;;;;;;8.75;6.00;;;;;;;8.11;52.76;100820.78;10255583;28;20228;-69
2021/05/03 08:17:53;;;;;;;10.30;7.13;;;;;;;8.75;51.79;100814.91;10299738;28;20231;-69
2021/05/03 08:22:55;;;;;;;9.55;6.30;;;;;;;8.82;50.22;100830.47;10258103;28;20335;-69
2021/05/03 08:27:58;;;;;;;10.80;6.25;;;;;;;8.57;51.20;100825.88;10282105;28;20252;-69
2021/05/03 08:33:00;;;;;;;5.80;4.07;;;;;;;8.37;50.36;100831.66;10266435;28;20607;-69
2021/05/03 08:38:02;;;;;;;10.45;4.85;;;;;;;9.16;48.80;100819.28;10268504;28;20740;-69
2021/05/03 08:43:05;;;;;;;6.55;4.82;;;;;;;9.22;48.71;100824.25;10267092;28;20236;-69
2021/05/03 08:48:13;;;;;;;10.02;6.80;;;;;;;9.38;48.05;100798.13;10243429;28;20240;-69
2021/05/03 08:53:18;;;;;;;8.18;6.13;;;;;;;9.30;47.67;100805.81;10233277;28;20236;-69
2021/05/03 08:58:21;;;;;;;9.13;5.55;;;;;;;9.77;45.21;100790.06;10264596;28;20255;-69
2021/05/03 09:03:23;;;;;;;9.75;5.80;;;;;;;10.14;45.47;100786.44;10246410;28;20729;-69
2021/05/03 09:08:26;;;;;;;9.02;5.50;;;;;;;10.73;42.95;100771.41;10226934;28;20240;-69
2021/05/03 09:13:31;;;;;;;8.93;4.00;;;;;;;10.69;42.75;100804.81;10253352;28;20225;-69
2021/05/03 09:18:33;;;;;;;12.63;4.80;;;;;;;9.95;44.76;100796.78;10307564;28;20734;-69
2021/05/03 09:23:59;;;;;;;9.65;5.13;;;;;;;10.05;44.62;100788.94;10303991;28;20239;-69
2021/05/03 09:29:27;;;;;;;8.02;5.35;;;;;;;9.98;44.43;100772.41;10311746;28;20330;-69
2021/05/03 09:34:32;;;;;;;6.50;4.60;;;;;;;10.52;41.97;100766.66;10277690;28;20886;-70
2021/05/03 09:39:34;;;;;;;6.45;4.32;;;;;;;9.99;42.83;100733.03;10260730;28;21786;-69
2021/05/03 09:44:37;;;;;;;8.98;5.05;;;;;;;11.01;41.63;100749.47;10225782;28;20249;-70
2021/05/03 09:49:39;;;;;;;7.32;4.95;;;;;;;11.03;39.62;100744.84;10232874;28;20243;-69
2021/05/03 09:54:41;;;;;;;4.07;3.22;;;;;;;10.46;40.32;100755.50;10231393;28;20228;-70
2021/05/03 09:59:45;;;;;;;6.65;4.53;;;;;;;10.20;41.17;100739.50;10260373;28;20239;-70
2021/05/03 10:04:50;;;;;;;9.25;4.38;;;;;;;9.89;41.87;100751.63;10264755;28;21653;-70
2021/05/03 10:09:59;;;;;;;6.75;4.85;;;;;;;10.35;40.85;100741.06;10263875;28;20258;-70
2021/05/03 10:15:04;;;;;;;5.43;3.83;;;;;;;11.59;38.56;100740.53;10282629;28;20237;-70
2021/05/03 10:20:09;;;;;;;6.70;4.60;;;;;;;11.26;37.72;100731.47;10312768;28;20735;-70
2021/05/03 10:25:17;;;;;;;7.13;4.35;;;;;;;11.76;37.18;100723.03;10311019;28;20260;-70
2021/05/03 10:30:23;;;;;;;6.43;3.78;;;;;;;12.35;36.23;100722.72;10311288;28;20846;-70
2021/05/03 10:35:26;;;;;;;8.32;4.55;;;;;;;12.45;35.33;100699.41;10312623;28;20817;-70
2021/05/03 10:40:50;;;;;;;5.28;3.83;;;;;;;12.75;34.48;100712.13;10309433;28;20235;-70
2021/05/03 10:46:51;;;;;;;6.60;4.68;;;;;;;12.36;35.32;100697.47;10309339;28;20241;-70
2021/05/03 10:51:54;;;;;;;7.55;4.25;;;;;;;12.46;34.95;100698.41;10289162;28;20700;-70
2021/05/03 10:56:58;;;;;;;7.00;5.45;;;;;;;12.58;34.66;100667.72;10289886;28;20254;-70
2021/05/03 11:02:08;;;;;;;8.00;4.90;;;;;;;13.19;34.29;100664.28;10303886;28;20252;-70
2021/05/03 11:07:11;;;;;;;8.45;4.03;;;;;;;12.38;34.18;100682.91;10292703;28;20610;-70
2021/05/03 11:12:40;;;;;;;3.97;2.42;;;;;;;12.90;33.50;100650.66;10288563;28;20569;-70
2021/05/03 11:18:16;;;;;;;4.20;3.63;;;;;;;12.99;33.44;100643.59;10238970;28;20615;-70
2021/05/03 11:23:30;;;;;;;4.47;3.55;;;;;;;13.36;32.70;100640.38;10269505;28;21484;-70
2021/05/03 11:28:36;;;;;;;6.15;4.85;;;;;;;12.91;33.44;100624.53;10269023;28;20235;-70
2021/05/03 11:33:44;;;;;;;8.70;5.65;;;;;;;13.45;33.02;100626.09;10270048;28;20258;-70
2021/05/03 11:38:55;;;;;;;6.93;5.55;;;;;;;14.35;32.34;100606.16;10268269;28;20675;-70
2021/05/03 11:44:13;;;;;;;8.75;5.05;;;;;;;14.25;31.87;100643.97;10270252;28;20303;-70
2021/05/03 11:49:18;;;;;;;7.82;5.32;;;;;;;13.29;33.62;100623.84;10267789;28;20235;-70
2021/05/03 11:54:28;;;;;;;5.53;3.83;;;;;;;13.39;33.97;100605.91;10256877;28;20224;-70
2021/05/03 11:59:31;;;;;;;8.75;4.78;;;;;;;13.05;32.37;100610.69;10269004;28;20231;-70
2021/05/03 12:04:40;;;;;;;8.55;6.60;;;;;;;13.08;33.91;100610.41;10269877;28;20234;-70
2021/05/03 12:09:43;;;;;;;8.27;6.10;;;;;;;14.37;32.29;100605.00;10269013;28;20235;-70
2021/05/03 12:14:48;;;;;;;9.05;5.80;;;;;;;14.54;32.03;100595.34;10278994;28;20243;-70
2021/05/03 12:19:53;;;;;;;7.47;4.53;;;;;;;14.57;30.69;100586.94;10307997;28;20254;-70
2021/05/03 12:25:03;;;;;;;6.72;5.18;;;;;;;14.49;31.57;100588.66;10307894;28;20234;-70
2021/05/03 12:30:06;;;;;;;8.48;6.28;;;;;;;15.17;31.84;100574.94;10307653;28;20243;-70
2021/05/03 12:35:11;;;;;;;6.15;5.07;;;;;;;14.97;30.05;100577.69;10309060;28;20231;-72
2021/05/03 12:40:15;;;;;;;10.40;6.38;;;;;;;13.24;32.28;100555.97;10305704;28;20238;-70
2021/05/03 12:45:34;;;;;;;11.68;6.13;;;;;;;13.67;32.02;100560.22;10307685;28;20227;-70
2021/05/03 12:51:08;;;;;;;10.15;6.70;;;;;;;13.48;33.36;100542.16;10307521;28;20238;-70
2021/05/03 12:56:16;;;;;;;8.93;6.40;;;;;;;14.08;31.41;100542.88;10309315;28;20231;-70
2021/05/03 13:01:28;;;;;;;9.45;5.65;;;;;;;14.08;31.65;100540.19;10308425;28;20243;-70
2021/05/03 13:06:41;;;;;;;6.88;4.97;;;;;;;15.31;30.40;100543.81;10314533;28;20791;-70
2021/05/03 13:12:01;;;;;;;7.57;6.03;;;;;;;14.91;31.52;100507.97;10313527;28;20262;-70
2021/05/03 13:22:57;;;;;;;9.45;7.28;;;;;;;14.55;31.36;100504.28;10260369;28;20242;-70
2021/05/03 13:28:06;;;;;;;9.88;7.15;;;;;;;13.88;32.96;100511.50;10272732;28;20255;-70
2021/05/03 13:33:08;;;;;;;10.48;6.40;;;;;;;12.67;33.70;100506.22;10271778;28;20228;-70
2021/05/03 13:38:11;;;;;;;8.82;6.20;;;;;;;12.78;34.85;100498.03;10273523;28;20725;-70
2021/05/03 13:43:13;;;;;;;10.15;8.43;;;;;;;12.25;37.37;100504.41;10238582;28;20757;-70
2021/05/03 13:48:15;;;;;;;11.45;8.23;;;;;;;12.34;36.75;100489.31;10265098;28;20244;-70
2021/05/03 13:53:18;;;;;;;12.27;9.00;;;;;;;13.70;35.05;100482.50;10271436;28;20231;-70
2021/05/03 13:58:20;;;;;;;13.25;8.43;;;;;;;13.40;35.61;100480.78;10265608;28;20252;-70
2021/05/03 14:03:22;;;;;;;9.82;8.27;;;;;;;13.30;36.05;100484.41;10267642;28;20244;-70
2021/05/03 14:08:25;;;;;;;10.32;7.85;;;;;;;14.80;33.97;100473.00;10271413;28;20764;-70
2021/05/03 14:13:27;;;;;;;10.75;8.73;;;;;;;14.41;34.10;100472.34;10270547;28;20236;-70
2021/05/03 14:18:30;;;;;;;8.55;7.13;;;;;;;13.65;34.19;100465.88;10269506;28;20235;-70
2021/05/03 14:23:33;;;;;;;9.52;6.07;;;;;;;13.44;34.52;100465.19;10268376;28;20262;-70
2021/05/03 14:28:40;;;;;;;12.15;7.50;;;;;;;15.35;32.10;100450.50;10274929;28;20248;-70
2021/05/03 14:33:50;;;;;;;11.13;6.93;;;;;;;14.48;31.29;100439.16;10271912;28;20258;-70
2021/05/03 14:38:52;;;;;;;10.45;5.80;;;;;;;15.14;29.51;100431.81;10288102;28;20819;-70
2021/05/03 14:43:54;;;;;;;7.95;5.80;;;;;;;14.92;29.93;100438.50;10270112;28;20227;-70
2021/05/03 14:49:01;;;;;;;8.32;5.80;;;;;;;14.74;30.95;100416.84;10271105;28;20242;-71
2021/05/03 14:54:13;;;;;;;9.32;6.53;;;;;;;15.13;30.41;100405.78;10270503;28;20236;-69
2021/05/03 14:59:15;;;;;;;9.40;6.53;;;;;;;13.57;32.63;100421.69;10268116;28;20262;-71
2021/05/03 15:04:17;;;;;;;7.28;6.25;;;;;;;13.98;32.63;100400.75;10270298;28;20243;-69
2021/05/03 15:09:22;;;;;;;8.05;5.90;;;;;;;13.10;33.16;100386.44;10285801;28;20239;-69
2021/05/03 15:14:30;;;;;;;8.57;6.07;;;;;;;13.10;33.56;100399.94;10279731;28;20250;-69
2021/05/03 15:19:37;;;;;;;8.25;4.88;;;;;;;12.78;33.46;100392.91;10308345;28;20240;-69
2021/05/03 15:24:39;;;;;;;10.10;6.47;;;;;;;13.55;32.54;100385.91;10311239;28;20245;-70
2021/05/03 15:29:55;;;;;;;8.90;5.82;;;;;;;13.70;32.13;100369.13;10309374;28;20868;-70
2021/05/03 15:34:57;;;;;;;8.77;4.60;;;;;;;12.59;32.88;100372.19;10296441;28;20246;-70
2021/05/03 15:40:00;;;;;;;8.20;5.80;;;;;;;12.84;33.20;100365.44;10238236;28;20232;-70
2021/05/03 15:45:02;;;;;;;8.07;6.50;;;;;;;12.75;32.36;100359.03;10255848;28;20743;-69
2021/05/03 15:50:06;;;;;;;9.30;5.70;;;;;;;13.18;32.09;100356.94;10308857;28;20250;-70
2021/05/03 15:55:10;;;;;;;7.63;5.57;;;;;;;12.98;31.23;100354.22;10309284;28;20362;-70
2021/05/03 16:00:13;;;;;;;9.52;5.57;;;;;;;12.50;31.79;100346.06;10308657;28;20246;-69
2021/05/03 16:05:15;;;;;;;9.20;6.95;;;;;;;12.23;33.36;100341.25;10308760;28;20231;-69
2021/05/03 16:10:18;;;;;;;7.45;6.18;;;;;;;12.46;33.01;100333.88;10260744;28;20236;-71
2021/05/03 16:15:21;;;;;;;7.97;5.68;;;;;;;13.11;32.74;100321.59;10275110;28;21474;-71
2021/05/03 16:20:24;;;;;;;7.22;5.20;;;;;;;12.52;32.81;100315.28;10307312;28;20765;-70
2021/05/03 16:25:30;;;;;;;6.28;4.43;;;;;;;12.58;32.62;100322.81;10266993;28;20251;-70
2021/05/03 16:30:37;;;;;;;8.13;5.80;;;;;;;12.79;33.39;100303.00;10228386;28;20741;-70
2021/05/03 16:35:39;;;;;;;10.38;6.00;;;;;;;12.63;33.89;100303.53;10274328;28;20246;-70
2021/05/03 16:40:41;;;;;;;9.98;6.10;;;;;;;12.99;33.28;100303.84;10274485;28;20242;-71
2021/05/03 16:45:43;;;;;;;8.52;5.88;;;;;;;12.32;34.62;100300.09;10274588;28;20246;-70
2021/05/03 16:50:48;;;;;;;11.02;7.18;;;;;;;13.34;34.19;100286.22;10226762;28;20236;-70
2021/05/03 16:55:51;;;;;;;10.88;7.05;;;;;;;13.31;33.00;100290.06;10233938;28;20258;-70
2021/05/03 17:00:53;;;;;;;11.82;6.18;;;;;;;12.78;33.67;100288.66;10234186;28;20271;-70
2021/05/03 17:05:55;;;;;;;11.15;6.97;;;;;;;12.73;34.86;100257.75;10234906;28;20623;-70
2021/05/03 17:10:58;;;;;;;8.70;5.80;;;;;;;12.49;34.47;100250.91;10239337;28;20631;-70
2021/05/03 17:16:00;;;;;;;11.60;6.90;;;;;;;12.15;35.12;100247.72;10281257;28;20240;-70
2021/05/03 17:21:02;;;;;;;10.52;7.03;;;;;;;12.17;35.86;100232.25;10252896;28;20243;-70
2021/05/03 17:26:05;;;;;;;9.45;6.95;;;;;;;12.19;35.54;100227.59;10268421;28;20601;-70
2021/05/03 17:31:07;;;;;;;9.07;6.82;;;;;;;12.36;35.57;100226.06;10274099;28;20232;-71
2021/05/03 17:36:10;;;;;;;10.85;6.47;;;;;;;12.06;35.30;100226.97;10271257;28;20235;-70
2021/05/03 17:41:13;;;;;;;10.63;7.07;;;;;;;11.95;35.49;100212.63;10272973;28;20803;-70
2021/05/03 17:46:15;;;;;;;9.43;6.63;;;;;;;11.65;35.86;100201.91;10269373;28;20327;-71
2021/05/03 17:51:17;;;;;;;9.73;7.90;;;;;;;11.87;35.84;100207.09;10268765;28;20243;-71
2021/05/03 17:56:20;;;;;;;12.05;7.55;;;;;;;11.85;35.83;100190.25;10255451;28;20227;-70
2021/05/03 18:01:24;;;;;;;11.75;7.45;;;;;;;11.72;36.28;100176.19;10272938;28;20239;-71
2021/05/03 18:06:26;;;;;;;9.30;6.00;;;;;;;11.61;35.93;100160.16;10248184;28;20306;-71
2021/05/03 18:11:29;;;;;;;8.73;6.72;;;;;;;11.65;36.48;100167.78;10233409;28;20729;-71
2021/05/03 18:16:31;;;;;;;12.15;7.68;;;;;;;11.82;36.20;100157.34;10259801;28;20246;-71
2021/05/03 18:21:34;;;;;;;10.95;7.70;;;;;;;11.58;36.19;100147.81;10273010;28;20278;-71
2021/05/03 18:26:40;;;;;;;12.95;8.00;;;;;;;11.47;36.74;100148.75;10271659;28;20238;-71
2021/05/03 18:31:43;;;;;;;10.43;6.68;;;;;;;11.46;36.82;100133.63;10263925;28;20239;-71
2021/05/03 18:36:46;;;;;;;10.38;7.05;;;;;;;11.33;37.06;100135.69;10241527;28;20240;-71
2021/05/03 18:41:50;;;;;;;11.35;7.90;;;;;;;11.48;37.02;100138.84;10231286;28;20665;-71
2021/05/03 18:46:52;;;;;;;12.15;7.20;;;;;;;11.21;37.40;100128.69;10229519;28;20351;-70
2021/05/03 18:51:54;;;;;;;10.43;6.07;;;;;;;11.31;37.31;100123.38;10231578;28;20240;-71
2021/05/03 18:56:57;;;;;;;8.68;6.53;;;;;;;11.24;37.48;100118.53;10231435;28;20249;-70
2021/05/03 19:01:59;;;;;;;11.45;7.55;;;;;;;11.00;37.89;100110.75;10231060;28;20584;-70
2021/05/03 19:07:01;;;;;;;10.52;6.10;;;;;;;10.95;38.01;100106.75;10232888;28;20618;-69
2021/05/03 19:12:05;;;;;;;8.25;6.10;;;;;;;10.88;37.97;100097.53;10228852;28;20236;-69
2021/05/03 19:17:07;;;;;;;8.57;6.28;;;;;;;10.80;38.12;100095.50;10262285;28;20239;-71
2021/05/03 19:22:10;;;;;;;11.38;6.22;;;;;;;10.79;38.53;100081.22;10270189;28;20728;-71
2021/05/03 19:27:13;;;;;;;10.32;6.32;;;;;;;10.78;38.89;100074.16;10266527;28;20244;-71
2021/05/03 19:32:19;;;;;;;9.80;6.53;;;;;;;10.87;38.86;100067.13;10267350;28;20597;-70
2021/05/03 19:37:21;;;;;;;8.20;6.60;;;;;;;10.76;39.41;100065.38;10270253;28;20250;-70
2021/05/03 19:42:24;;;;;;;8.95;6.15;;;;;;;10.65;39.92;100051.16;10270184;28;20247;-71
2021/05/03 19:47:26;;;;;;;8.68;6.22;;;;;;;10.57;39.76;100043.78;10268499;28;21594;-71
2021/05/03 20:03:38;;;;;;;10.38;6.68;;;;;;;10.27;40.65;100018.56;10104715;29;20246;-70
2021/05/03 20:08:41;;;;;;;9.73;6.70;;;;;;;10.22;40.68;100012.75;10198727;28;20728;-70
2021/05/03 20:13:46;;;;;;;6.88;5.95;;;;;;;10.17;40.55;99998.84;10236239;28;20238;-70
2021/05/03 20:18:48;;;;;;;8.05;5.90;;;;;;;10.16;40.24;99989.13;10309018;28;20239;-71
2021/05/03 20:23:50;;;;;;;8.00;5.47;;;;;;;10.13;40.22;99984.84;10309118;28;20296;-71
2021/05/03 20:28:53;;;;;;;13.13;6.55;;;;;;;10.12;40.55;99982.28;10307610;28;20239;-70
2021/05/03 20:34:02;;;;;;;9.10;6.43;;;;;;;10.05;40.47;99973.94;10307698;28;20239;-70
2021/05/03 20:39:15;;;;;;;8.52;5.20;;;;;;;10.05;40.59;99956.97;10308672;28;20231;-71
2021/05/03 20:44:18;;;;;;;6.07;4.70;;;;;;;10.00;40.46;99952.00;10275949;28;21170;-70
2021/05/03 20:49:20;;;;;;;6.88;5.22;;;;;;;10.13;40.17;99933.03;10266500;28;20263;-70
2021/05/03 20:54:22;;;;;;;5.60;4.80;;;;;;;10.16;40.00;99932.75;10264973;28;20318;-70
2021/05/03 20:59:24;;;;;;;7.78;4.90;;;;;;;10.16;39.94;99922.84;10281005;28;20250;-71
2021/05/03 21:04:27;;;;;;;6.00;4.40;;;;;;;10.23;39.83;99906.22;10264859;28;20246;-71
2021/05/03 21:09:28;;;;;;;5.55;4.38;;;;;;;10.19;39.85;99891.38;10266549;28;20267;-70
2021/05/03 21:14:31;;;;;;;5.63;4.10;;;;;;;10.20;39.50;99875.13;10260369;28;20232;-70
2021/05/03 21:19:33;;;;;;;5.25;4.15;;;;;;;10.19;39.43;99868.06;10242642;28;20232;-71
2021/05/03 21:24:35;;;;;;;5.85;3.80;;;;;;;10.28;39.26;99861.03;10269599;28;20925;-71
2021/05/03 21:29:38;;;;;;;4.78;3.75;;;;;;;10.30;38.96;99845.66;10250551;28;20255;-70
2021/05/03 21:34:40;;;;;;;3.58;3.15;;;;;;;10.21;38.96;99833.91;10251083;28;21321;-70
2021/05/03 21:39:42;;;;;;;5.50;3.40;;;;;;;10.20;39.16;99829.50;10253909;28;20242;-71
2021/05/03 21:44:45;;;;;;;5.53;3.92;;;;;;;10.22;38.81;99811.44;10249011;28;20665;-71
2021/05/03 21:49:47;;;;;;;5.68;3.60;;;;;;;10.12;38.97;99798.00;10243672;28;21049;-70
2021/05/03 21:54:49;;;;;;;4.22;3.20;;;;;;;10.17;38.98;99792.19;10248529;28;20232;-70
2021/05/03 21:59:52;;;;;;;3.35;3.05;;;;;;;10.12;38.73;99794.44;10248071;28;20235;-70
2021/05/03 22:04:54;;;;;;;4.40;3.42;;;;;;;10.19;38.83;99759.88;10255192;28;20743;-70
2021/05/03 22:09:56;;;;;;;4.97;3.85;;;;;;;10.12;38.92;99741.63;10269530;28;20250;-70
2021/05/03 22:15:01;;;;;;;6.55;3.95;;;;;;;10.01;39.40;99727.44;10282861;28;20242;-70
2021/05/03 22:20:16;;;;;;;7.10;4.40;;;;;;;10.02;39.54;99715.75;10311874;28;20242;-70
2021/05/03 22:25:22;;;;;;;4.15;3.60;;;;;;;9.99;39.95;99710.66;10310718;28;20235;-70
2021/05/03 22:30:25;;;;;;;6.32;3.85;;;;;;;9.94;40.08;99692.28;10310524;28;20235;-70
2021/05/03 22:35:27;;;;;;;7.43;4.03;;;;;;;9.79;40.53;99685.56;10309975;28;20246;-70
2021/05/03 22:40:51;;;;;;;6.10;4.55;;;;;;;9.86;40.70;99663.47;10310066;28;20270;-70
2021/05/03 23:18:15;;;;;;;7.88;5.72;;;;;;;10.31;40.20;99550.25;10268726;28;20235;-70
2021/05/03 23:23:17;;;;;;;6.38;4.28;;;;;;;10.54;39.68;99531.97;10268290;28;21368;-70
2021/05/03 23:28:19;;;;;;;6.80;4.15;;;;;;;10.36;39.95;99510.38;10268605;28;20832;-70
2021/05/03 23:33:22;;;;;;;5.22;3.08;;;;;;;10.35;39.69;99503.31;10282950;28;20258;-70
2021/05/03 23:38:24;;;;;;;5.35;3.78;;;;;;;10.53;39.73;99481.06;10267720;28;22033;-70
2021/05/03 23:43:26;;;;;;;6.13;4.65;;;;;;;10.75;39.40;99459.25;10268257;28;20593;-70
2021/05/03 23:48:31;;;;;;;8.57;4.55;;;;;;;10.55;39.66;99441.50;10266472;28;20236;-70
2021/05/03 23:53:33;;;;;;;7.85;4.53;;;;;;;10.83;39.23;99428.94;10265023;28;20243;-70
2021/05/03 23:58:35;;;;;;;10.68;4.15;;;;;;;10.83;39.24;99415.50;10266109;28;20242;-70
